Time;durP1;ratioP1;P1;durP2;ratioP2;P2;SDS_P1;SDS_P2;PMS_P1;PMS_P2;Temp;Humidity;BMP_temperature;BMP_pressure;BME280_temperature;BME280_humidity;BME280_pressure;Samples;Min_cycle;Max_cycle;Signal;HPM_P1;HPM_P2
2022/03/16 08:20:46;;;;;;;34.90;18.08;;;;;;;6.41;100.00;99907.13;5012431;28;20395;-87
2022/03/16 08:23:16;;;;;;;33.30;17.92;;;;;;;6.54;100.00;99903.16;4986954;28;20054;-86
2022/03/16 08:25:44;;;;;;;32.85;17.80;;;;;;;6.62;100.00;99897.03;4986372;28;20512;-87
2022/03/16 08:28:11;;;;;;;29.50;16.08;;;;;;;6.80;100.00;99904.44;4985908;28;20108;-87
2022/03/16 08:30:37;;;;;;;30.00;17.20;;;;;;;6.80;100.00;99885.53;4985447;28;20489;-87
2022/03/16 08:33:04;;;;;;;26.77;15.88;;;;;;;6.96;100.00;99903.88;4984435;28;20051;-87
2022/03/16 08:35:31;;;;;;;27.98;15.98;;;;;;;6.85;100.00;99888.63;4986214;28;20096;-86
2022/03/16 08:37:59;;;;;;;30.20;16.23;;;;;;;6.93;100.00;99882.53;4986060;28;20058;-84
2022/03/16 08:40:26;;;;;;;27.88;16.17;;;;;;;7.16;100.00;99902.84;4986056;28;20121;-86
2022/03/16 08:42:53;;;;;;;28.83;16.05;;;;;;;7.22;100.00;99894.16;4984335;28;20111;-87
2022/03/16 08:45:20;;;;;;;27.17;16.50;;;;;;;7.35;100.00;99893.84;4985629;28;20078;-87
2022/03/16 08:47:49;;;;;;;29.60;16.40;;;;;;;7.39;100.00;99892.56;4985100;28;20522;-87
2022/03/16 08:50:15;;;;;;;29.42;16.27;;;;;;;7.48;100.00;99888.09;4986278;28;20512;-87
2022/03/16 08:52:44;;;;;;;25.80;15.57;;;;;;;7.51;100.00;99877.00;4985013;28;20051;-86
2022/03/16 08:55:14;;;;;;;28.67;16.52;;;;;;;7.54;100.00;99879.41;4986439;28;20050;-87
2022/03/16 08:57:43;;;;;;;27.23;15.20;;;;;;;7.69;100.00;99881.63;4985537;28;20061;-87
2022/03/16 09:00:14;;;;;;;26.52;14.38;;;;;;;7.68;100.00;99878.06;4984527;28;20100;-87
2022/03/16 09:02:41;;;;;;;29.23;16.85;;;;;;;7.68;100.00;99886.19;4984437;28;20508;-87
2022/03/16 09:05:09;;;;;;;27.38;15.10;;;;;;;7.75;100.00;99894.56;4985800;28;20055;-87
2022/03/16 09:07:38;;;;;;;26.27;16.67;;;;;;;7.87;100.00;99879.81;4985611;28;20387;-87
2022/03/16 09:10:07;;;;;;;28.42;15.60;;;;;;;7.90;100.00;99868.72;4985534;28;20424;-87
2022/03/16 09:12:35;;;;;;;25.73;15.65;;;;;;;8.06;100.00;99876.16;4984728;28;20051;-87
2022/03/16 09:15:02;;;;;;;27.48;15.85;;;;;;;8.02;100.00;99863.94;4985386;28;20066;-87
2022/03/16 09:17:30;;;;;;;24.58;15.35;;;;;;;8.21;100.00;99867.53;4983806;28;20050;-87
2022/03/16 09:19:57;;;;;;;23.83;15.23;;;;;;;8.31;100.00;99868.34;4984799;28;20042;-85
2022/03/16 09:22:32;;;;;;;25.17;14.55;;;;;;;8.41;100.00;99869.09;4984768;28;20054;-85
2022/03/16 09:24:59;;;;;;;20.52;13.48;;;;;;;8.46;100.00;99863.25;4985222;28;20051;-86
2022/03/16 09:27:26;;;;;;;23.85;14.48;;;;;;;8.35;100.00;99858.03;4985303;28;20055;-86
2022/03/16 09:29:55;;;;;;;23.40;14.18;;;;;;;8.50;100.00;99872.78;4982868;28;20050;-86
2022/03/16 09:32:22;;;;;;;23.13;14.45;;;;;;;8.57;100.00;99882.00;4971035;28;20059;-86
2022/03/16 09:34:49;;;;;;;23.50;14.82;;;;;;;8.67;100.00;99871.94;4976103;28;20104;-86
2022/03/16 09:37:18;;;;;;;24.92;13.35;;;;;;;8.72;100.00;99847.06;4972164;28;20062;-86
2022/03/16 09:39:46;;;;;;;23.45;14.60;;;;;;;8.83;100.00;99868.50;4971656;28;20058;-86
2022/03/16 09:42:13;;;;;;;22.98;14.25;;;;;;;8.77;100.00;99852.03;4971370;28;20097;-86
2022/03/16 09:44:41;;;;;;;21.42;14.25;;;;;;;8.82;100.00;99847.84;4971883;28;20078;-86
2022/03/16 09:47:14;;;;;;;21.40;13.75;;;;;;;8.99;100.00;99859.66;4971620;28;20078;-87
2022/03/16 09:49:41;;;;;;;23.00;13.93;;;;;;;9.00;100.00;99857.78;4971682;28;20065;-87
2022/03/16 09:52:09;;;;;;;24.65;14.10;;;;;;;9.06;100.00;99856.31;4970072;28;20450;-86
2022/03/16 09:54:38;;;;;;;23.08;13.27;;;;;;;8.84;100.00;99872.94;4963641;28;20080;-86
2022/03/16 09:57:05;;;;;;;19.95;13.07;;;;;;;8.89;100.00;99863.47;4972359;28;20057;-86
2022/03/16 09:59:32;;;;;;;24.25;13.88;;;;;;;8.87;100.00;99860.94;4971742;28;20074;-86
2022/03/16 10:02:00;;;;;;;29.25;14.60;;;;;;;9.02;100.00;99874.78;4971300;28;20075;-86
2022/03/16 10:04:33;;;;;;;24.80;13.73;;;;;;;8.87;100.00;99852.78;4971479;28;20116;-86
2022/03/16 10:07:00;;;;;;;24.77;14.07;;;;;;;9.02;100.00;99853.91;4971903;28;20058;-86
2022/03/16 10:15:04;;;;;;;25.83;14.18;;;;;;;9.13;100.00;99858.22;4971120;28;20058;-86
2022/03/16 10:20:26;;;;;;;25.02;13.05;;;;;;;9.17;100.00;99845.22;4965806;28;20065;-87
2022/03/16 10:23:05;;;;;;;24.08;14.77;;;;;;;9.35;100.00;99847.88;4967452;28;20054;-87
2022/03/16 10:25:34;;;;;;;27.95;14.65;;;;;;;9.29;100.00;99827.66;4963538;28;20059;-87
2022/03/16 10:28:12;;;;;;;24.20;14.63;;;;;;;9.47;100.00;99827.59;4970188;28;20065;-87
2022/03/16 10:30:40;;;;;;;22.95;13.70;;;;;;;9.66;100.00;99839.22;4970059;28;20051;-87
2022/03/16 10:33:07;;;;;;;24.48;14.55;;;;;;;9.64;100.00;99825.78;4970154;28;20050;-87
2022/03/16 10:35:35;;;;;;;23.42;13.63;;;;;;;10.05;100.00;99841.41;4964593;28;20466;-88
2022/03/16 10:38:10;;;;;;;22.83;13.80;;;;;;;9.78;100.00;99818.88;4967260;28;20055;-86
2022/03/16 10:40:37;;;;;;;22.30;14.07;;;;;;;10.07;100.00;99831.22;4951676;28;20059;-87
2022/03/16 10:49:01;;;;;;;19.27;11.57;;;;;;;10.02;100.00;99839.84;4970426;28;20547;-86
2022/03/16 10:51:29;;;;;;;21.95;13.02;;;;;;;10.14;100.00;99840.41;4969929;28;20471;-86
2022/03/16 10:53:58;;;;;;;21.58;12.90;;;;;;;10.20;100.00;99828.88;4969464;28;20050;-85
2022/03/16 10:56:25;;;;;;;22.45;12.82;;;;;;;10.32;100.00;99828.56;4970019;28;20478;-86
2022/03/16 10:58:53;;;;;;;20.27;13.02;;;;;;;10.48;100.00;99834.06;4967908;28;20130;-86
2022/03/16 11:01:21;;;;;;;20.48;13.20;;;;;;;10.46;100.00;99814.34;4950980;28;20422;-86
2022/03/16 11:03:51;;;;;;;22.67;13.25;;;;;;;10.62;100.00;99808.06;4951151;28;20059;-86
2022/03/16 11:06:21;;;;;;;21.00;12.88;;;;;;;10.79;100.00;99817.06;4951327;28;20117;-86
2022/03/16 11:08:50;;;;;;;16.92;10.88;;;;;;;10.85;100.00;99815.53;4951364;28;20059;-86
2022/03/16 11:14:03;;;;;;;20.17;12.68;;;;;;;10.79;100.00;99812.50;4959603;28;20846;-86
2022/03/16 11:16:32;;;;;;;17.50;12.05;;;;;;;10.91;100.00;99823.03;4970734;28;20058;-86
2022/03/16 11:19:00;;;;;;;21.17;12.10;;;;;;;10.90;100.00;99805.84;4970022;28;20527;-86
2022/03/16 11:21:31;;;;;;;21.40;12.90;;;;;;;11.02;98.70;99816.38;4970085;28;20067;-85
2022/03/16 11:24:18;;;;;;;20.00;12.35;;;;;;;10.86;98.47;99785.44;4969737;28;20486;-85
2022/03/16 11:27:09;;;;;;;20.95;12.63;;;;;;;10.97;100.00;99781.53;4969919;28;20064;-85
2022/03/16 11:29:46;;;;;;;19.10;11.93;;;;;;;10.93;100.00;99786.47;4968415;28;20568;-85
2022/03/16 11:32:16;;;;;;;19.33;11.27;;;;;;;11.02;100.00;99784.59;4970002;28;20062;-85
2022/03/16 11:34:48;;;;;;;20.33;12.80;;;;;;;11.07;100.00;99794.97;4970068;28;20058;-85
2022/03/16 11:37:15;;;;;;;19.67;12.43;;;;;;;11.06;100.00;99799.53;4970374;28;20057;-85
2022/03/16 11:39:45;;;;;;;18.45;11.70;;;;;;;11.19;100.00;99777.22;4970041;28;20059;-85
2022/03/16 11:42:16;;;;;;;20.15;12.90;;;;;;;11.30;98.76;99793.19;4969384;28;20055;-85
2022/03/16 11:44:45;;;;;;;18.95;12.43;;;;;;;11.58;100.00;99781.03;4960742;28;20503;-85
2022/03/16 11:47:35;;;;;;;19.70;11.97;;;;;;;11.78;100.00;99789.63;4962975;28;20137;-85
2022/03/16 11:50:14;;;;;;;19.35;12.18;;;;;;;11.66;99.25;99773.66;4970100;28;20050;-84
2022/03/16 11:53:00;;;;;;;17.42;11.05;;;;;;;11.85;98.09;99780.56;4969400;28;20055;-84
2022/03/16 11:55:44;;;;;;;20.42;13.35;;;;;;;11.89;99.80;99786.47;4969842;28;20087;-84
2022/03/16 11:58:39;;;;;;;16.02;11.20;;;;;;;12.03;95.73;99795.84;4968214;28;20479;-84
2022/03/16 12:01:28;;;;;;;21.60;11.70;;;;;;;12.19;95.72;99787.56;4969535;28;20073;-84
2022/03/16 12:04:08;;;;;;;19.50;12.77;;;;;;;12.14;95.72;99759.13;4964813;28;20418;-84
2022/03/16 12:06:52;;;;;;;18.25;11.93;;;;;;;12.42;98.52;99764.03;4969612;28;20115;-84
2022/03/16 12:09:21;;;;;;;17.35;10.40;;;;;;;12.23;93.84;99754.47;4970170;28;20047;-85
2022/03/16 12:15:15;;;;;;;19.65;12.23;;;;;;;12.33;95.45;99763.25;4969688;28;20124;-84
2022/03/16 12:17:43;;;;;;;16.93;11.20;;;;;;;12.10;96.92;99745.00;4969820;28;20065;-84
2022/03/16 12:20:12;;;;;;;17.35;10.80;;;;;;;12.25;96.92;99755.97;4969630;28;20051;-84
2022/03/16 12:22:43;;;;;;;18.73;10.88;;;;;;;12.25;96.62;99758.72;4968944;28;20086;-84
2022/03/16 12:25:37;;;;;;;16.45;10.25;;;;;;;12.38;94.07;99742.59;4968710;28;20047;-85
2022/03/16 12:30:54;;;;;;;16.13;9.82;;;;;;;12.65;91.03;99756.69;4968166;28;20058;-85
2022/03/16 12:33:23;;;;;;;17.65;9.60;;;;;;;12.82;90.88;99735.56;4968602;28;20054;-84
2022/03/16 12:35:51;;;;;;;17.60;11.45;;;;;;;12.94;93.98;99722.31;4969105;28;20051;-85
2022/03/16 12:38:18;;;;;;;15.73;10.32;;;;;;;12.99;91.35;99708.97;4968895;28;20543;-85
2022/03/16 12:43:34;;;;;;;18.05;10.80;;;;;;;12.95;87.92;99713.09;4967829;28;20521;-84
2022/03/16 12:46:13;;;;;;;16.77;10.48;;;;;;;12.91;93.07;99698.13;4957949;28;20055;-84
2022/03/16 12:48:41;;;;;;;17.15;10.07;;;;;;;12.71;93.96;99701.41;4957726;28;20081;-84
2022/03/16 12:51:08;;;;;;;17.50;9.60;;;;;;;12.79;93.87;99711.38;4965259;28;20047;-84
2022/03/16 12:53:44;;;;;;;14.43;9.43;;;;;;;12.65;93.33;99704.88;4949186;28;20055;-85
2022/03/16 12:56:12;;;;;;;15.60;9.27;;;;;;;12.73;93.47;99701.22;4955862;28;20449;-84
2022/03/16 12:58:41;;;;;;;17.48;10.70;;;;;;;12.72;94.53;99694.03;4949321;28;20565;-84
2022/03/16 13:01:15;;;;;;;17.95;9.52;;;;;;;12.90;93.28;99696.41;4951320;28;20070;-85
2022/03/16 13:03:43;;;;;;;14.50;9.63;;;;;;;12.78;92.91;99693.34;4952552;28;20138;-84
2022/03/16 13:06:14;;;;;;;17.08;9.68;;;;;;;12.72;93.71;99683.13;4967302;28;20042;-84
2022/03/16 13:08:42;;;;;;;16.42;10.45;;;;;;;12.61;93.32;99678.16;4972387;28;20047;-84
2022/03/16 13:11:18;;;;;;;20.80;8.65;;;;;;;12.78;91.26;99692.47;4956461;28;20139;-84
2022/03/16 13:13:59;;;;;;;19.13;8.63;;;;;;;12.82;91.86;99677.41;4960805;28;20048;-83
2022/03/16 13:16:34;;;;;;;16.52;10.35;;;;;;;12.87;94.32;99684.03;4976173;28;20051;-85
2022/03/16 13:19:02;;;;;;;17.02;11.00;;;;;;;13.05;93.82;99686.38;4976061;28;20533;-85
2022/03/16 13:21:30;;;;;;;13.95;9.75;;;;;;;12.93;93.80;99672.34;4984176;28;20091;-86
2022/03/16 13:24:08;;;;;;;15.10;10.52;;;;;;;13.11;91.41;99673.84;4984418;28;20050;-84
2022/03/16 13:26:35;;;;;;;15.10;10.23;;;;;;;12.92;94.30;99672.53;4988866;28;20071;-85
2022/03/16 13:29:09;;;;;;;19.98;10.93;;;;;;;13.12;92.85;99682.91;4994155;28;20047;-84
2022/03/16 13:31:40;;;;;;;23.17;11.40;;;;;;;13.03;93.69;99676.69;4985866;28;20063;-84
2022/03/16 13:34:09;;;;;;;19.45;10.40;;;;;;;13.07;94.20;99675.28;4973894;28;20051;-84
2022/03/16 13:36:38;;;;;;;16.38;10.95;;;;;;;13.30;93.40;99701.63;4974457;28;20075;-85
2022/03/16 13:39:19;;;;;;;20.42;11.45;;;;;;;13.11;93.65;99690.22;4978948;28;20049;-85
2022/03/16 13:42:12;;;;;;;17.88;10.55;;;;;;;13.09;89.54;99708.69;4972462;28;20051;-85
2022/03/16 13:44:42;;;;;;;18.95;10.20;;;;;;;12.91;92.58;99703.59;4971269;28;20089;-84
2022/03/16 13:47:27;;;;;;;18.92;10.73;;;;;;;13.03;94.76;99701.25;4953764;28;20058;-85
2022/03/16 13:49:56;;;;;;;18.20;10.80;;;;;;;13.00;90.86;99707.06;4953573;28;20117;-85
2022/03/16 13:52:28;;;;;;;15.50;10.18;;;;;;;13.00;92.90;99702.44;4960176;28;20081;-85
2022/03/16 13:55:07;;;;;;;18.33;10.65;;;;;;;13.01;94.13;99692.41;4971621;28;20108;-84
2022/03/16 13:57:41;;;;;;;17.23;10.68;;;;;;;13.06;93.30;99689.94;4972301;28;20063;-85
2022/03/16 14:00:11;;;;;;;20.25;11.38;;;;;;;12.98;92.67;99670.94;4971605;28;20050;-85
2022/03/16 14:02:38;;;;;;;;;;;;;;;12.81;91.05;99670.25;4971857;28;20078;-85
2022/03/16 14:05:07;;;;;;;23.35;11.38;;;;;;;12.71;95.04;99655.03;4972092;28;19932;-85
2022/03/16 14:07:41;;;;;;;16.02;10.65;;;;;;;12.57;92.64;99656.69;4971774;28;20153;-86
2022/03/16 14:10:10;;;;;;;25.33;11.85;;;;;;;12.42;93.78;99650.38;4952606;28;20062;-85
2022/03/16 14:12:40;;;;;;;20.27;11.38;;;;;;;12.46;94.87;99654.41;4953963;28;20070;-84
2022/03/16 14:15:16;;;;;;;22.05;11.70;;;;;;;12.44;94.61;99644.75;4952725;28;20142;-85
2022/03/16 14:17:54;;;;;;;17.42;11.70;;;;;;;12.65;95.34;99653.03;4959699;28;20050;-85
2022/03/16 14:20:28;;;;;;;16.15;10.82;;;;;;;12.54;96.41;99645.31;4957098;28;20082;-85
2022/03/16 14:22:55;;;;;;;18.45;11.45;;;;;;;12.63;97.17;99638.75;4969982;28;20150;-85
2022/03/16 14:25:28;;;;;;;19.70;11.18;;;;;;;12.60;95.74;99627.34;4971302;28;20101;-85
2022/03/16 14:27:56;;;;;;;20.17;11.73;;;;;;;12.63;94.89;99622.38;4971015;28;20054;-85
2022/03/16 14:30:25;;;;;;;20.77;11.43;;;;;;;12.48;95.24;99616.91;4970639;28;20138;-85
2022/03/16 14:32:54;;;;;;;18.52;11.57;;;;;;;12.59;96.55;99617.50;4970388;28;20050;-85
2022/03/16 14:35:22;;;;;;;17.50;10.15;;;;;;;12.59;95.12;99628.41;4958926;28;20074;-86
2022/03/16 14:37:53;;;;;;;20.08;10.90;;;;;;;12.83;95.25;99630.84;4960168;28;20055;-84
2022/03/16 14:40:22;;;;;;;17.13;11.68;;;;;;;12.85;93.53;99620.59;4951629;28;20043;-85
2022/03/16 14:42:51;;;;;;;15.95;11.00;;;;;;;12.65;94.33;99594.94;4951932;28;20051;-89
2022/03/16 14:45:18;;;;;;;19.27;11.60;;;;;;;12.70;94.59;99617.00;4953484;28;20082;-85
2022/03/16 14:47:46;;;;;;;16.40;10.93;;;;;;;12.57;94.44;99598.59;4967907;28;20055;-84
2022/03/16 14:50:13;;;;;;;16.65;9.80;;;;;;;12.75;94.23;99618.16;4971806;28;20141;-85
2022/03/16 14:52:40;;;;;;;17.95;10.00;;;;;;;12.52;95.45;99596.41;4958328;28;20075;-84
2022/03/16 14:55:09;;;;;;;14.95;9.52;;;;;;;12.55;95.13;99611.56;4967574;28;20047;-84
2022/03/16 14:57:35;;;;;;;17.70;10.93;;;;;;;12.52;94.76;99611.94;4970841;28;20120;-84
2022/03/16 15:00:11;;;;;;;15.90;9.55;;;;;;;12.45;92.81;99610.97;4970663;28;20059;-84
2022/03/16 15:02:45;;;;;;;17.10;10.07;;;;;;;12.51;94.21;99607.50;4969732;28;20073;-84
2022/03/16 15:05:13;;;;;;;19.10;11.95;;;;;;;12.58;94.25;99616.63;4970085;28;20058;-84
2022/03/16 15:07:45;;;;;;;16.13;9.80;;;;;;;12.58;90.23;99613.91;4969737;28;20082;-85
2022/03/16 15:10:17;;;;;;;14.55;9.30;;;;;;;12.59;90.36;99614.78;4962036;28;20050;-84
2022/03/16 15:12:50;;;;;;;12.10;8.93;;;;;;;12.51;89.22;99607.50;4967766;28;20066;-84
2022/03/16 15:15:23;;;;;;;11.88;9.05;;;;;;;12.47;87.61;99593.41;4960275;28;20154;-84
2022/03/16 15:17:55;;;;;;;13.88;8.88;;;;;;;12.64;86.92;99577.69;5003289;28;20063;-84
2022/03/16 15:20:28;;;;;;;15.00;9.25;;;;;;;12.56;87.19;99580.53;4949537;28;20051;-85
2022/03/16 15:22:55;;;;;;;13.13;8.68;;;;;;;12.48;86.85;99591.50;4966355;28;20209;-85
2022/03/16 15:25:22;;;;;;;14.88;8.70;;;;;;;12.57;81.85;99590.41;4968352;28;20049;-84
2022/03/16 15:27:49;;;;;;;12.02;8.55;;;;;;;12.46;82.71;99585.41;4965392;28;20569;-85
2022/03/16 15:30:19;;;;;;;15.55;8.63;;;;;;;12.34;84.72;99576.84;4954308;28;20522;-84
2022/03/16 15:32:48;;;;;;;10.32;7.88;;;;;;;12.33;83.08;99594.22;4947842;28;20058;-85
2022/03/16 15:35:18;;;;;;;14.63;8.63;;;;;;;12.36;86.27;99600.16;4949346;28;20051;-84
2022/03/16 15:37:49;;;;;;;16.23;7.60;;;;;;;12.31;82.90;99602.59;4967281;28;20059;-84
2022/03/16 15:43:09;;;;;;;12.20;8.32;;;;;;;12.32;84.44;99604.28;4968979;28;20319;-84
2022/03/16 15:45:40;;;;;;;12.05;7.32;;;;;;;12.42;81.13;99624.97;4960875;28;20100;-84
2022/03/16 15:48:17;;;;;;;16.10;8.32;;;;;;;12.28;84.09;99624.75;4967497;28;20065;-84
2022/03/16 15:50:44;;;;;;;14.48;8.73;;;;;;;12.28;85.36;99630.22;4967824;28;20115;-84
2022/03/16 15:53:14;;;;;;;18.27;10.63;;;;;;;12.22;93.60;99606.41;4966824;28;20500;-84
2022/03/16 15:55:40;;;;;;;14.65;11.48;;;;;;;12.13;94.54;99618.44;4970985;28;20051;-84
2022/03/16 15:58:07;;;;;;;19.05;11.60;;;;;;;12.06;95.88;99602.00;4967874;28;20158;-84
2022/03/16 16:00:34;;;;;;;19.15;11.25;;;;;;;12.01;95.96;99608.00;4958457;28;20082;-84
2022/03/16 16:03:02;;;;;;;14.55;11.15;;;;;;;11.99;97.81;99603.75;4966864;28;20051;-85
2022/03/16 16:05:31;;;;;;;16.98;11.77;;;;;;;11.89;96.64;99601.22;4967114;28;20055;-84
2022/03/16 16:07:59;;;;;;;20.90;11.68;;;;;;;12.02;98.40;99601.50;4967805;28;20251;-84
2022/03/16 16:10:29;;;;;;;19.48;13.73;;;;;;;11.82;97.62;99597.56;4969173;28;20078;-84
2022/03/16 16:12:58;;;;;;;17.58;11.50;;;;;;;11.72;97.45;99589.63;4967489;28;20059;-84
2022/03/16 16:15:25;;;;;;;17.98;11.65;;;;;;;11.81;99.44;99598.59;4967334;28;20054;-84
2022/03/16 16:17:53;;;;;;;12.27;9.95;;;;;;;11.84;99.87;99601.78;4965756;28;20078;-84
2022/03/16 16:20:23;;;;;;;19.17;12.13;;;;;;;11.83;100.00;99624.63;4966335;28;20046;-84
2022/03/16 16:22:50;;;;;;;15.43;11.25;;;;;;;11.62;99.64;99598.03;4950370;28;20050;-84
2022/03/16 16:25:20;;;;;;;16.90;11.93;;;;;;;11.72;99.38;99618.75;4966351;28;20150;-84
2022/03/16 16:27:53;;;;;;;;;;;;;;;11.61;99.64;99607.22;4967460;28;20212;-85
2022/03/16 16:30:33;;;;;;;15.65;10.30;;;;;;;11.52;99.57;99594.72;4968657;28;20277;-88
2022/03/16 16:33:04;;;;;;;17.08;10.70;;;;;;;11.33;99.56;99605.00;4964302;28;20383;-85
2022/03/16 16:35:35;;;;;;;15.73;11.20;;;;;;;11.22;97.75;99600.00;4962400;28;20052;-84
2022/03/16 16:38:05;;;;;;;15.38;10.77;;;;;;;11.25;95.87;99606.97;4963834;28;20046;-84
2022/03/16 16:40:56;;;;;;;16.70;11.45;;;;;;;11.15;94.17;99612.59;4970812;28;20104;-85
2022/03/16 16:43:24;;;;;;;13.98;10.98;;;;;;;11.16;94.97;99617.88;4958555;28;20074;-85
2022/03/16 16:45:52;;;;;;;16.52;11.30;;;;;;;11.09;93.13;99621.47;4951912;28;20055;-85
2022/03/16 16:48:24;;;;;;;16.85;11.63;;;;;;;11.02;92.44;99596.00;4957917;28;20130;-85
2022/03/16 16:50:53;;;;;;;18.38;11.90;;;;;;;11.08;92.26;99611.59;4968972;28;20051;-85
2022/03/16 16:53:24;;;;;;;16.05;11.23;;;;;;;10.95;92.47;99604.03;4960803;28;20417;-85
2022/03/16 16:55:51;;;;;;;15.02;10.63;;;;;;;10.89;92.71;99602.84;4951552;28;20136;-85
2022/03/16 16:58:18;;;;;;;17.17;11.73;;;;;;;10.99;91.39;99605.38;4964041;28;20047;-85
2022/03/16 17:00:46;;;;;;;16.13;11.35;;;;;;;11.03;89.70;99609.41;4965916;28;20077;-85
2022/03/16 17:03:16;;;;;;;18.17;12.35;;;;;;;10.94;91.30;99616.81;4968941;28;20077;-84
2022/03/16 17:05:48;;;;;;;17.48;12.43;;;;;;;10.77;92.67;99612.44;4972101;28;20072;-91
2022/03/16 17:08:16;;;;;;;19.85;11.93;;;;;;;10.72;94.97;99626.56;4969712;28;20287;-85
2022/03/16 17:10:46;;;;;;;18.38;12.00;;;;;;;10.64;96.61;99626.56;4970021;28;20124;-85
2022/03/16 17:13:14;;;;;;;20.35;12.82;;;;;;;10.61;98.50;99645.94;4965196;28;20104;-85
2022/03/16 17:15:42;;;;;;;22.38;12.77;;;;;;;10.45;100.00;99630.53;4993370;28;20071;-85
2022/03/16 17:18:18;;;;;;;17.88;12.15;;;;;;;10.46;100.00;99656.66;4971244;28;20082;-85
2022/03/16 17:20:52;;;;;;;22.42;12.90;;;;;;;10.44;100.00;99650.56;4965892;28;20479;-86
2022/03/16 17:23:23;;;;;;;18.17;12.75;;;;;;;10.23;100.00;99624.75;4971228;28;20046;-85
2022/03/16 17:25:56;;;;;;;22.45;13.45;;;;;;;10.07;100.00;99619.31;4958376;28;20050;-85
2022/03/16 17:28:23;;;;;;;23.50;14.50;;;;;;;10.07;100.00;99633.75;4973363;28;20098;-86
2022/03/16 17:30:59;;;;;;;21.23;14.15;;;;;;;9.99;100.00;99625.59;4967450;28;20425;-85
2022/03/16 17:33:37;;;;;;;18.75;13.55;;;;;;;9.83;100.00;99626.47;4964258;28;20047;-86
2022/03/16 17:36:04;;;;;;;20.77;13.68;;;;;;;9.87;100.00;99651.41;4968512;28;20093;-85
2022/03/16 17:38:31;;;;;;;22.08;13.93;;;;;;;9.80;100.00;99656.66;4968994;28;20146;-86
2022/03/16 17:46:24;;;;;;;21.80;14.75;;;;;;;9.60;100.00;99630.84;4961068;28;20054;-86
2022/03/16 17:49:04;;;;;;;22.63;15.38;;;;;;;9.60;100.00;99638.97;4969237;28;20047;-86
2022/03/16 17:51:32;;;;;;;19.08;12.98;;;;;;;9.49;100.00;99646.41;4953679;28;20123;-86
2022/03/16 17:53:59;;;;;;;19.05;13.73;;;;;;;9.41;100.00;99629.25;4952226;28;20104;-86
2022/03/16 17:59:10;;;;;;;21.60;14.00;;;;;;;9.39;100.00;99637.56;4959100;28;20070;-85
2022/03/16 18:01:40;;;;;;;22.15;15.18;;;;;;;9.41;100.00;99650.97;4969715;28;20058;-86
2022/03/16 18:04:10;;;;;;;21.90;15.13;;;;;;;9.33;100.00;99630.09;4964870;28;20100;-86
2022/03/16 18:06:40;;;;;;;19.15;13.27;;;;;;;9.33;100.00;99654.53;4971407;28;20066;-86
2022/03/16 18:09:13;;;;;;;23.73;14.15;;;;;;;9.26;100.00;99629.91;4960318;28;20047;-86
2022/03/16 18:14:30;;;;;;;21.60;15.02;;;;;;;9.10;100.00;99625.28;4949468;29;20055;-85
2022/03/16 18:17:00;;;;;;;23.10;14.82;;;;;;;9.03;100.00;99614.25;4951082;28;20402;-86
2022/03/16 18:19:31;;;;;;;24.85;15.55;;;;;;;8.99;100.00;99620.16;4958642;28;20074;-85
2022/03/16 18:24:43;;;;;;;21.08;14.32;;;;;;;8.96;100.00;99618.63;4960666;28;20120;-85
2022/03/16 18:27:14;;;;;;;23.75;15.15;;;;;;;8.99;100.00;99636.44;4965129;28;20043;-85
2022/03/16 18:29:45;;;;;;;24.27;15.05;;;;;;;8.89;100.00;99631.13;4949428;28;20105;-85
2022/03/16 18:32:13;;;;;;;24.35;15.50;;;;;;;8.90;100.00;99629.25;4948973;28;20063;-85
2022/03/16 18:34:50;;;;;;;26.52;16.35;;;;;;;8.83;100.00;99631.78;4965718;28;20043;-85
2022/03/16 18:37:16;;;;;;;23.15;14.65;;;;;;;8.90;100.00;99648.25;4954414;28;20058;-85
2022/03/16 18:39:52;;;;;;;21.90;14.63;;;;;;;8.84;100.00;99647.88;4968902;28;20703;-85
2022/03/16 18:42:28;;;;;;;22.73;14.93;;;;;;;8.74;100.00;99638.19;4968236;28;20070;-85
2022/03/16 18:44:54;;;;;;;29.45;16.15;;;;;;;8.71;100.00;99644.75;4969263;28;20099;-86
2022/03/16 18:47:22;;;;;;;22.58;16.05;;;;;;;8.72;100.00;99651.06;4968505;28;20047;-83
2022/03/16 18:49:51;;;;;;;21.67;15.23;;;;;;;8.61;100.00;99627.75;4968596;28;20089;-84
2022/03/16 18:52:24;;;;;;;26.63;15.70;;;;;;;8.56;100.00;99622.81;4963868;28;20104;-85
2022/03/16 18:54:57;;;;;;;28.50;16.27;;;;;;;8.50;100.00;99627.03;4966627;28;20054;-85
2022/03/16 18:57:36;;;;;;;29.17;18.45;;;;;;;8.47;100.00;99613.78;4969971;28;20050;-85
2022/03/16 19:00:14;;;;;;;26.45;17.25;;;;;;;8.42;100.00;99609.84;4968977;28;20482;-85
2022/03/16 19:02:41;;;;;;;25.83;16.73;;;;;;;8.53;100.00;99625.03;4966683;28;20062;-85
2022/03/16 19:05:15;;;;;;;30.27;17.00;;;;;;;8.53;100.00;99625.03;4968183;28;20051;-85
2022/03/16 19:07:48;;;;;;;22.48;15.77;;;;;;;8.49;100.00;99635.31;4968176;28;20092;-86
2022/03/16 19:10:20;;;;;;;24.30;15.73;;;;;;;8.29;100.00;99608.41;4963151;28;20055;-86
2022/03/16 19:15:37;;;;;;;28.88;16.33;;;;;;;8.32;100.00;99623.50;4967093;28;20136;-86
2022/03/16 19:18:06;;;;;;;26.60;15.80;;;;;;;8.18;100.00;99610.56;4968373;28;20046;-85
2022/03/16 19:20:36;;;;;;;23.75;15.27;;;;;;;8.22;100.00;99617.31;4968322;28;20112;-86
2022/03/16 19:23:03;;;;;;;25.58;16.13;;;;;;;8.18;100.00;99627.63;4967051;28;20071;-86
2022/03/16 19:25:35;;;;;;;25.23;16.02;;;;;;;8.21;100.00;99631.91;4967039;28;20043;-86
2022/03/16 19:28:02;;;;;;;30.27;18.02;;;;;;;8.15;100.00;99625.25;4959788;28;20050;-86
2022/03/16 19:30:31;;;;;;;26.30;16.58;;;;;;;8.07;100.00;99612.50;4948162;28;20146;-85
2022/03/16 19:32:58;;;;;;;27.73;16.38;;;;;;;8.20;100.00;99632.91;4965253;28;20104;-85
2022/03/16 19:35:27;;;;;;;28.85;17.05;;;;;;;8.17;100.00;99615.09;4968554;28;20445;-86
2022/03/16 19:38:01;;;;;;;27.95;16.58;;;;;;;8.13;100.00;99601.03;4968327;28;20386;-85
2022/03/16 19:40:30;;;;;;;25.77;17.35;;;;;;;8.22;100.00;99617.31;4968207;28;20062;-85
2022/03/16 19:42:57;;;;;;;25.63;16.98;;;;;;;8.23;100.00;99602.78;4967168;28;20051;-85
2022/03/16 19:45:25;;;;;;;23.92;15.90;;;;;;;8.35;100.00;99616.91;4967369;28;20050;-85
2022/03/16 19:47:53;;;;;;;23.50;16.27;;;;;;;8.41;100.00;99598.16;4967481;28;20054;-85
2022/03/16 19:50:23;;;;;;;28.20;17.75;;;;;;;8.48;100.00;99618.22;4967730;28;20074;-86
2022/03/16 19:52:50;;;;;;;26.92;16.75;;;;;;;8.43;100.00;99604.28;4967402;28;20050;-86
2022/03/16 19:55:18;;;;;;;25.67;16.75;;;;;;;8.49;100.00;99622.63;4967997;28;20585;-86
2022/03/16 19:57:45;;;;;;;23.13;16.23;;;;;;;8.44;100.00;99611.41;4967444;28;20416;-86
2022/03/16 20:00:13;;;;;;;28.90;18.67;;;;;;;8.39;100.00;99607.47;4968034;28;20058;-86
2022/03/16 20:02:40;;;;;;;25.42;17.20;;;;;;;8.38;100.00;99622.84;4962779;28;20439;-85
2022/03/16 20:05:08;;;;;;;26.88;16.65;;;;;;;8.34;100.00;99607.94;4966936;28;20047;-85
2022/03/16 20:07:36;;;;;;;26.92;16.48;;;;;;;8.43;100.00;99608.81;4969035;28;20541;-87
2022/03/16 20:10:03;;;;;;;30.25;16.75;;;;;;;8.39;100.00;99616.44;4970946;28;20494;-87
2022/03/16 20:12:32;;;;;;;25.70;17.58;;;;;;;8.44;100.00;99622.25;4966245;28;20423;-85
2022/03/16 20:15:00;;;;;;;26.52;17.20;;;;;;;8.34;100.00;99626.91;4966763;28;20058;-85
2022/03/16 20:17:30;;;;;;;27.23;17.02;;;;;;;8.25;100.00;99614.31;4967877;28;20051;-84
2022/03/16 20:19:59;;;;;;;29.40;18.33;;;;;;;8.42;100.00;99626.97;4967727;28;20482;-84
2022/03/16 20:22:27;;;;;;;25.50;17.07;;;;;;;8.31;100.00;99603.69;4967495;28;20043;-85
2022/03/16 20:25:00;;;;;;;27.75;16.38;;;;;;;8.42;100.00;99612.56;4968311;28;20302;-86
2022/03/16 20:27:27;;;;;;;26.63;17.95;;;;;;;8.41;100.00;99614.41;4968325;28;20090;-86
2022/03/16 20:29:56;;;;;;;25.13;17.38;;;;;;;8.42;100.00;99620.69;4967914;28;20074;-85
2022/03/16 20:32:25;;;;;;;29.08;18.08;;;;;;;8.23;100.00;99616.31;4967399;28;20455;-86
2022/03/16 20:34:55;;;;;;;25.80;17.40;;;;;;;8.23;100.00;99614.47;4966624;28;20047;-86
2022/03/16 20:37:25;;;;;;;26.85;18.20;;;;;;;8.26;100.00;99600.59;4953789;28;20437;-86